createdAt,value
2023-03-12T00:01:59.666Z,4.53
2023-03-12T00:04:26.873Z,4.87
2023-03-12T00:06:53.604Z,5.00
2023-03-12T00:09:20.014Z,5.00
2023-03-12T00:11:46.394Z,4.47
2023-03-12T00:14:12.752Z,4.90
2023-03-12T00:16:39.170Z,4.17
2023-03-12T00:19:05.550Z,5.27
2023-03-12T00:21:31.958Z,4.50
2023-03-12T00:23:58.365Z,3.50
2023-03-12T00:26:24.844Z,3.80
2023-03-12T00:28:51.615Z,3.70
2023-03-12T00:31:27.844Z,3.80
2023-03-12T00:33:55.991Z,3.80
2023-03-12T00:36:26.150Z,2.93
2023-03-12T00:38:53.642Z,3.30
2023-03-12T00:41:21.314Z,3.33
2023-03-12T00:43:49.045Z,3.00
2023-03-12T00:46:15.683Z,2.87
2023-03-12T00:48:42.377Z,2.93
2023-03-12T00:51:09.456Z,3.00
2023-03-12T00:53:36.568Z,3.40
2023-03-12T00:56:04.287Z,2.70
2023-03-12T00:58:30.898Z,2.90
2023-03-12T01:00:57.340Z,2.77
2023-03-12T01:03:23.912Z,3.07
2023-03-12T01:05:54.652Z,3.10
2023-03-12T01:08:22.404Z,2.63
2023-03-12T01:10:48.861Z,2.67
2023-03-12T01:13:15.488Z,2.60
2023-03-12T01:15:41.844Z,3.07
2023-03-12T01:18:08.265Z,2.50
2023-03-12T01:20:34.783Z,2.50
2023-03-12T01:23:01.245Z,2.60
2023-03-12T01:25:27.773Z,2.90
2023-03-12T01:27:54.125Z,2.37
2023-03-12T01:30:20.484Z,2.30
2023-03-12T01:32:46.942Z,2.30
2023-03-12T01:35:13.510Z,2.60
2023-03-12T01:37:39.957Z,2.17
2023-03-12T01:40:06.654Z,2.60
2023-03-12T01:42:33.003Z,2.13
2023-03-12T01:45:01.784Z,3.17
2023-03-12T01:47:31.766Z,2.50
2023-03-12T01:50:00.924Z,2.43
2023-03-12T01:52:27.223Z,2.20
2023-03-12T01:55:23.171Z,2.27
2023-03-12T01:57:53.722Z,2.27
2023-03-12T02:00:23.380Z,2.33
2023-03-12T02:02:52.155Z,2.67
2023-03-12T02:05:51.267Z,2.30
2023-03-12T02:08:18.521Z,2.13
2023-03-12T02:10:45.731Z,2.50
2023-03-12T02:13:12.619Z,2.40
2023-03-12T02:15:39.868Z,2.30
2023-03-12T02:18:11.381Z,2.03
2023-03-12T02:20:43.766Z,2.30
2023-03-12T02:23:16.420Z,2.70
2023-03-12T02:25:47.627Z,2.07
2023-03-12T02:28:15.924Z,2.20
2023-03-12T02:30:47.081Z,2.50
2023-03-12T02:33:15.295Z,2.20
2023-03-12T02:35:42.272Z,2.40
2023-03-12T02:38:33.785Z,2.40
2023-03-12T02:41:05.214Z,2.17
2023-03-12T02:43:31.632Z,2.67
2023-03-12T02:45:58.024Z,2.17
2023-03-12T02:48:24.390Z,2.00
2023-03-12T02:50:50.788Z,2.40
2023-03-12T02:53:17.194Z,2.10
2023-03-12T02:55:43.557Z,2.17
2023-03-12T02:58:09.910Z,2.50
2023-03-12T03:00:37.667Z,2.20
2023-03-12T03:03:04.054Z,2.13
2023-03-12T03:05:30.412Z,2.53
2023-03-12T03:07:56.914Z,2.40
2023-03-12T03:10:23.313Z,2.00
2023-03-12T03:12:50.069Z,2.10
2023-03-12T03:15:16.729Z,1.90
2023-03-12T03:17:43.338Z,2.03
2023-03-12T03:20:11.853Z,2.30
2023-03-12T03:22:39.145Z,2.47
2023-03-12T03:25:07.360Z,2.10
2023-03-12T03:27:33.855Z,1.87
2023-03-12T03:30:00.342Z,2.07
2023-03-12T03:32:27.286Z,2.07
2023-03-12T03:34:53.803Z,2.30
2023-03-12T03:37:20.214Z,1.87
2023-03-12T03:39:46.643Z,2.27
2023-03-12T03:42:13.022Z,1.90
2023-03-12T03:44:39.454Z,2.03
2023-03-12T03:47:05.996Z,2.23
2023-03-12T03:49:32.385Z,2.13
2023-03-12T03:51:58.735Z,2.33
2023-03-12T03:54:25.150Z,2.27
2023-03-12T03:56:51.498Z,1.97
2023-03-12T03:59:17.924Z,2.17
2023-03-12T04:01:44.312Z,2.00
2023-03-12T04:04:10.713Z,2.37
2023-03-12T04:06:37.189Z,1.93
2023-03-12T04:09:04.175Z,2.00
2023-03-12T04:11:30.596Z,2.13
2023-03-12T04:13:57.555Z,2.53
2023-03-12T04:16:24.698Z,2.20
2023-03-12T04:18:51.118Z,2.00
2023-03-12T04:21:17.680Z,2.10
2023-03-12T04:23:44.176Z,2.00
2023-03-12T04:26:10.840Z,2.03
2023-03-12T04:28:37.757Z,2.10
2023-03-12T04:31:06.941Z,1.90
2023-03-12T04:33:36.462Z,2.13
2023-03-12T04:36:03.835Z,2.00
2023-03-12T04:38:30.860Z,1.77
2023-03-12T04:41:01.808Z,1.90
2023-03-12T04:43:29.576Z,2.13
2023-03-12T04:45:56.148Z,2.07
2023-03-12T04:48:22.726Z,2.00
2023-03-12T04:50:50.286Z,2.23
2023-03-12T04:53:17.137Z,2.00
2023-03-12T04:55:43.538Z,2.00
2023-03-12T04:58:10.039Z,2.10
2023-03-12T05:00:36.624Z,1.93
2023-03-12T05:03:03.110Z,2.10
2023-03-12T05:05:29.519Z,1.63
2023-03-12T05:07:55.892Z,1.90
2023-03-12T05:10:22.327Z,2.40
2023-03-12T05:12:48.739Z,2.03
2023-03-12T05:15:17.723Z,2.20
2023-03-12T05:17:44.520Z,1.50
2023-03-12T05:20:12.181Z,2.00
2023-03-12T05:22:38.988Z,2.00
2023-03-12T05:25:06.095Z,1.93
2023-03-12T05:27:32.831Z,2.20
2023-03-12T05:29:59.234Z,1.80
2023-03-12T05:32:25.806Z,1.90
2023-03-12T05:34:52.238Z,1.60
2023-03-12T05:37:18.725Z,2.30
2023-03-12T05:39:46.670Z,2.03
2023-03-12T05:42:14.511Z,2.03
2023-03-12T05:44:41.758Z,2.13
2023-03-12T05:47:08.586Z,2.10
2023-03-12T05:49:35.109Z,1.97
2023-03-12T05:52:01.529Z,1.90
2023-03-12T05:54:29.126Z,2.10
2023-03-12T05:56:56.307Z,2.13
2023-03-12T05:59:22.815Z,2.10
2023-03-12T06:01:49.281Z,2.17
2023-03-12T06:04:15.661Z,2.50
2023-03-12T06:06:42.333Z,2.50
2023-03-12T06:09:08.667Z,1.97
2023-03-12T06:11:35.410Z,2.17
2023-03-12T06:14:02.061Z,2.50
2023-03-12T06:16:29.652Z,2.57
2023-03-12T06:18:58.811Z,2.20
2023-03-12T06:21:28.627Z,2.40
2023-03-12T06:23:55.419Z,2.43
2023-03-12T06:26:22.673Z,2.57
2023-03-12T06:28:50.582Z,2.57
2023-03-12T06:31:17.997Z,2.50
2023-03-12T06:33:44.497Z,2.53
2023-03-12T06:36:11.639Z,2.60
2023-03-12T06:38:38.832Z,2.90
2023-03-12T06:41:17.388Z,2.73
2023-03-12T06:43:44.911Z,2.87
2023-03-12T06:46:17.033Z,2.77
2023-03-12T06:48:46.110Z,2.90
2023-03-12T06:51:14.574Z,2.17
2023-03-12T06:53:42.616Z,2.40
2023-03-12T06:56:09.928Z,2.30
2023-03-12T06:58:36.308Z,2.97
2023-03-12T07:01:03.645Z,2.73
2023-03-12T07:03:29.999Z,2.50
2023-03-12T07:05:57.856Z,2.30
2023-03-12T07:08:25.407Z,2.70
2023-03-12T07:10:51.752Z,2.10
2023-03-12T07:13:18.174Z,2.70
2023-03-12T07:15:46.413Z,2.47
2023-03-12T07:18:12.861Z,2.80
2023-03-12T07:20:41.722Z,2.60
2023-03-12T07:23:08.798Z,2.53
2023-03-12T07:25:37.535Z,2.67
2023-03-12T07:28:04.428Z,2.80
2023-03-12T07:30:33.306Z,2.53
2023-03-12T07:33:02.155Z,2.40
2023-03-12T07:35:29.696Z,2.17
2023-03-12T07:37:56.210Z,2.57
2023-03-12T07:40:22.933Z,2.60
2023-03-12T07:42:50.991Z,2.63
2023-03-12T07:45:18.584Z,2.63
2023-03-12T07:47:45.919Z,2.10
2023-03-12T07:50:13.273Z,2.40
2023-03-12T07:52:39.728Z,2.83
2023-03-12T07:55:07.144Z,2.27
2023-03-12T07:57:33.759Z,2.60
2023-03-12T08:00:00.209Z,2.57
2023-03-12T08:02:26.700Z,2.80
2023-03-12T08:04:53.092Z,2.20
2023-03-12T08:07:19.575Z,2.60
2023-03-12T08:09:49.427Z,2.47
2023-03-12T08:12:16.252Z,2.30
2023-03-12T08:14:42.725Z,2.67
2023-03-12T08:17:09.138Z,2.30
2023-03-12T08:19:35.560Z,2.60
2023-03-12T08:22:01.873Z,2.53
2023-03-12T08:24:28.287Z,2.30
2023-03-12T08:26:54.767Z,2.60
2023-03-12T08:29:21.075Z,2.63
2023-03-12T08:32:03.454Z,2.70
2023-03-12T08:34:30.767Z,2.63
2023-03-12T08:36:57.327Z,2.60
2023-03-12T08:39:23.664Z,2.50
2023-03-12T08:41:51.626Z,2.60
2023-03-12T08:44:18.094Z,2.30
2023-03-12T08:46:44.474Z,3.00
2023-03-12T08:49:10.775Z,2.70
2023-03-12T08:51:37.225Z,3.27
2023-03-12T08:54:05.240Z,2.80
2023-03-12T08:56:32.100Z,2.83
2023-03-12T08:58:59.444Z,3.10
2023-03-12T09:01:25.826Z,2.70
2023-03-12T09:03:55.060Z,2.40
2023-03-12T09:06:21.475Z,2.20
2023-03-12T09:08:48.009Z,2.90
2023-03-12T09:11:15.007Z,2.90
2023-03-12T09:14:05.109Z,3.00
2023-03-12T09:16:28.642Z,3.13
2023-03-12T09:18:55.024Z,3.60
2023-03-12T09:21:21.499Z,3.50
2023-03-12T09:23:47.884Z,3.00
2023-03-12T09:26:14.623Z,3.07
2023-03-12T09:28:42.412Z,3.30
2023-03-12T09:31:08.860Z,3.10
2023-03-12T09:33:35.895Z,2.97
2023-03-12T09:36:02.979Z,3.50
2023-03-12T09:38:31.779Z,3.60
2023-03-12T09:40:58.843Z,3.97
2023-03-12T09:43:25.289Z,3.93
2023-03-12T09:45:52.327Z,3.53
2023-03-12T09:48:41.903Z,4.63
2023-03-12T09:51:22.012Z,3.57
2023-03-12T09:53:55.970Z,3.90
2023-03-12T09:56:23.374Z,3.90
2023-03-12T09:58:50.723Z,4.10
2023-03-12T10:01:38.805Z,4.03
2023-03-12T10:04:14.433Z,3.63
2023-03-12T10:07:09.820Z,4.27
2023-03-12T10:09:36.181Z,4.03
2023-03-12T10:12:23.946Z,4.20
2023-03-12T10:15:03.550Z,4.30
2023-03-12T10:17:43.704Z,4.80
2023-03-12T10:20:31.861Z,4.77
2023-03-12T10:23:27.989Z,4.50
2023-03-12T10:26:14.703Z,4.40
2023-03-12T10:28:56.219Z,4.90
2023-03-12T10:31:27.996Z,4.40
2023-03-12T10:33:59.986Z,4.87
2023-03-12T10:36:36.534Z,4.77
2023-03-12T10:39:04.619Z,5.10
2023-03-12T10:41:34.606Z,4.87
2023-03-12T10:44:07.598Z,4.60
2023-03-12T10:46:37.032Z,5.40
2023-03-12T10:49:21.815Z,4.73
2023-03-12T10:51:56.044Z,5.90
2023-03-12T10:54:32.946Z,4.90
2023-03-12T10:56:59.836Z,5.13
2023-03-12T10:59:30.409Z,6.07
2023-03-12T11:01:57.865Z,5.67
2023-03-12T11:04:32.313Z,6.20
2023-03-12T11:07:07.811Z,5.83
2023-03-12T11:09:34.599Z,5.80
2023-03-12T11:12:01.018Z,6.10
2023-03-12T11:14:29.952Z,5.80
2023-03-12T11:17:16.838Z,6.40
2023-03-12T11:19:43.254Z,7.00
2023-03-12T11:22:11.599Z,7.20
2023-03-12T11:24:56.626Z,6.97
2023-03-12T11:27:44.481Z,7.23
2023-03-12T11:30:19.339Z,7.27
2023-03-12T11:32:49.006Z,7.80
2023-03-12T11:35:28.768Z,8.50
2023-03-12T11:38:01.334Z,9.20
2023-03-12T11:40:52.093Z,8.03
2023-03-12T11:43:47.534Z,7.73
2023-03-12T11:46:26.845Z,8.40
2023-03-12T11:49:17.684Z,7.50
2023-03-12T11:51:55.340Z,8.43
2023-03-12T11:54:44.963Z,8.07
2023-03-12T11:57:14.272Z,7.20
2023-03-12T11:59:54.776Z,8.57
2023-03-12T12:02:42.416Z,7.97
2023-03-12T12:05:08.711Z,8.53
2023-03-12T12:07:41.220Z,9.33
2023-03-12T12:10:35.455Z,10.03
2023-03-12T12:13:04.788Z,9.83
2023-03-12T12:15:59.224Z,9.23
2023-03-12T12:18:52.869Z,9.70
2023-03-12T12:21:43.061Z,10.30
2023-03-12T12:24:29.575Z,9.50
2023-03-12T12:27:08.273Z,10.57
2023-03-12T12:29:59.063Z,10.23
2023-03-12T12:33:09.212Z,10.40
2023-03-12T12:35:37.991Z,11.30
2023-03-12T12:38:22.974Z,10.13
2023-03-12T12:41:00.361Z,9.33
2023-03-12T12:43:38.017Z,8.57
2023-03-12T12:46:09.719Z,7.70
2023-03-12T12:49:08.391Z,7.03
2023-03-12T12:51:48.844Z,7.10
2023-03-12T12:54:51.861Z,6.47
2023-03-12T12:57:25.163Z,5.97
2023-03-12T13:00:06.228Z,5.90
2023-03-12T13:02:34.454Z,4.93
2023-03-12T13:05:01.216Z,5.63
2023-03-12T13:07:28.179Z,5.17
2023-03-12T13:09:57.692Z,5.13
2023-03-12T13:12:47.518Z,5.00
2023-03-12T13:15:29.334Z,4.73
2023-03-12T13:17:55.752Z,4.97
2023-03-12T13:20:28.778Z,5.07
2023-03-12T13:23:16.390Z,5.07
2023-03-12T13:25:57.078Z,4.30
2023-03-12T13:28:26.418Z,4.67
2023-03-12T13:30:53.862Z,4.10
2023-03-12T13:33:38.802Z,3.63
2023-03-12T13:36:28.146Z,4.63
2023-03-12T13:39:06.802Z,4.40
2023-03-12T13:41:40.310Z,4.53
2023-03-12T13:44:32.963Z,4.10
2023-03-12T13:47:00.913Z,4.70
2023-03-12T13:49:35.508Z,3.87
2023-03-12T13:52:18.895Z,4.13
2023-03-12T13:54:49.192Z,4.40
2023-03-12T13:57:31.536Z,3.73
2023-03-12T13:59:58.973Z,4.33
2023-03-12T14:02:32.117Z,4.10
2023-03-12T14:05:07.668Z,4.50
2023-03-12T14:07:52.963Z,4.20
2023-03-12T14:10:28.418Z,4.53
2023-03-12T14:13:17.952Z,4.10
2023-03-12T14:16:05.606Z,4.43
2023-03-12T14:18:35.623Z,4.40
2023-03-12T14:21:07.161Z,4.93
2023-03-12T14:23:38.316Z,3.90
2023-03-12T14:26:06.685Z,4.20
2023-03-12T14:28:40.651Z,4.43
2023-03-12T14:31:14.954Z,4.50
2023-03-12T14:33:50.041Z,4.57
2023-03-12T14:36:20.379Z,3.97
2023-03-12T14:38:51.685Z,4.27
2023-03-12T14:41:25.665Z,3.77
2023-03-12T14:43:53.950Z,4.03
2023-03-12T14:46:23.106Z,4.40
2023-03-12T14:48:51.696Z,4.50
2023-03-12T14:51:30.506Z,3.87
2023-03-12T14:54:03.304Z,4.27
2023-03-12T14:56:34.733Z,4.60
2023-03-12T14:59:20.329Z,4.20
2023-03-12T15:01:47.790Z,4.37
2023-03-12T15:04:21.147Z,4.40
2023-03-12T15:06:50.831Z,4.30
2023-03-12T15:09:21.975Z,4.57
2023-03-12T15:11:54.818Z,4.03
2023-03-12T15:14:22.729Z,4.40
2023-03-12T15:16:50.729Z,4.87
2023-03-12T15:19:22.840Z,4.93
2023-03-12T15:21:50.489Z,4.57
2023-03-12T15:24:18.073Z,5.13
2023-03-12T15:26:44.552Z,3.97
2023-03-12T15:29:26.151Z,4.37
2023-03-12T15:31:55.671Z,4.43
2023-03-12T15:34:37.032Z,4.50
2023-03-12T15:37:18.924Z,4.60
2023-03-12T15:39:49.918Z,4.10
2023-03-12T15:42:19.763Z,4.87
2023-03-12T15:44:49.515Z,4.63
2023-03-12T15:47:22.600Z,5.13
2023-03-12T15:49:53.401Z,5.63
2023-03-12T15:52:19.718Z,5.03
2023-03-12T15:55:09.941Z,5.60
2023-03-12T15:57:56.772Z,5.30
2023-03-12T16:00:25.156Z,5.13
2023-03-12T16:03:00.584Z,4.63
2023-03-12T16:05:33.295Z,5.30
2023-03-12T16:08:15.808Z,5.30
2023-03-12T16:10:42.334Z,4.97
2023-03-12T16:13:14.163Z,5.80
2023-03-12T16:15:40.952Z,5.40
2023-03-12T16:18:13.140Z,4.47
2023-03-12T16:20:39.690Z,4.47
2023-03-12T16:23:06.073Z,6.33
2023-03-12T16:25:32.956Z,5.63
2023-03-12T16:28:04.864Z,4.93
2023-03-12T16:30:34.471Z,5.33
2023-03-12T16:33:03.083Z,5.07
2023-03-12T16:35:33.531Z,4.90
2023-03-12T16:38:00.983Z,5.23
2023-03-12T16:40:33.830Z,5.33
2023-03-12T16:43:03.515Z,5.40
2023-03-12T16:45:33.271Z,5.87
2023-03-12T16:48:02.990Z,5.37
2023-03-12T16:50:30.173Z,5.30
2023-03-12T16:52:56.945Z,5.40
2023-03-12T16:55:27.439Z,5.20
2023-03-12T16:57:57.888Z,5.80
2023-03-12T17:00:27.442Z,5.63
2023-03-12T17:02:57.804Z,4.93
2023-03-12T17:05:29.857Z,5.13
2023-03-12T17:07:57.449Z,5.63
2023-03-12T17:10:25.173Z,5.83
2023-03-12T17:12:53.256Z,5.23
2023-03-12T17:15:30.461Z,5.00
2023-03-12T17:17:59.019Z,5.23
2023-03-12T17:20:25.829Z,5.33
2023-03-12T17:22:53.135Z,5.23
2023-03-12T17:25:24.399Z,5.70
2023-03-12T17:27:50.945Z,5.20
2023-03-12T17:30:18.870Z,5.43
2023-03-12T17:32:45.230Z,4.53
2023-03-12T17:35:11.936Z,5.63
2023-03-12T17:37:38.346Z,4.97
2023-03-12T17:40:08.226Z,5.03
2023-03-12T17:42:35.965Z,5.33
2023-03-12T17:45:07.177Z,5.20
2023-03-12T17:47:33.613Z,5.17
2023-03-12T17:50:00.129Z,5.20
2023-03-12T17:52:26.710Z,4.93
2023-03-12T17:54:53.302Z,5.27
2023-03-12T17:57:19.719Z,5.53
2023-03-12T17:59:46.160Z,4.87
2023-03-12T18:02:14.290Z,5.03
2023-03-12T18:04:41.007Z,4.97
2023-03-12T18:07:07.749Z,4.90
2023-03-12T18:09:34.274Z,4.60
2023-03-12T18:12:00.993Z,5.43
2023-03-12T18:14:27.666Z,5.30
2023-03-12T18:16:54.039Z,5.63
2023-03-12T18:19:20.499Z,5.17
2023-03-12T18:21:46.904Z,4.87
2023-03-12T18:24:14.699Z,5.97
2023-03-12T18:26:42.156Z,5.43
2023-03-12T18:29:08.553Z,5.63
2023-03-12T18:31:34.972Z,5.40
2023-03-12T18:34:01.487Z,5.30
2023-03-12T18:36:27.936Z,5.60
2023-03-12T18:38:54.370Z,5.77
2023-03-12T18:41:20.827Z,5.43
2023-03-12T18:43:47.241Z,6.10
2023-03-12T18:46:13.746Z,5.27
2023-03-12T18:48:42.936Z,5.23
2023-03-12T18:51:10.554Z,5.30
2023-03-12T18:53:36.901Z,5.27
2023-03-12T18:56:03.520Z,6.37
2023-03-12T18:58:30.254Z,6.43
2023-03-12T19:00:58.007Z,6.33
2023-03-12T19:03:26.703Z,5.60
2023-03-12T19:06:10.781Z,5.80
2023-03-12T19:08:37.979Z,5.90
2023-03-12T19:11:13.329Z,4.93
2023-03-12T19:13:39.723Z,6.47
2023-03-12T19:16:08.938Z,5.83
2023-03-12T19:18:36.694Z,5.97
2023-03-12T19:21:03.483Z,4.87
2023-03-12T19:23:30.018Z,5.57
2023-03-12T19:25:56.428Z,5.53
2023-03-12T19:28:22.971Z,5.77
2023-03-12T19:30:49.540Z,5.97
2023-03-12T19:33:16.019Z,5.53
2023-03-12T19:35:42.978Z,6.03
2023-03-12T19:38:09.454Z,6.00
2023-03-12T19:40:35.904Z,4.27
2023-03-12T19:43:02.708Z,5.17
2023-03-12T19:45:29.311Z,6.40
2023-03-12T19:47:55.807Z,5.37
2023-03-12T19:50:23.838Z,6.33
2023-03-12T19:52:50.183Z,5.97
2023-03-12T19:55:16.644Z,6.10
2023-03-12T19:57:43.141Z,5.97
2023-03-12T20:00:12.074Z,5.77
2023-03-12T20:02:39.325Z,5.93
2023-03-12T20:05:07.142Z,4.73
2023-03-12T20:07:33.632Z,5.20
2023-03-12T20:10:00.311Z,5.07
2023-03-12T20:12:26.701Z,4.57
2023-03-12T20:14:53.305Z,4.20
2023-03-12T20:17:19.787Z,5.33
2023-03-12T20:19:46.222Z,5.07
2023-03-12T20:22:13.009Z,4.83
2023-03-12T20:24:39.534Z,4.70
2023-03-12T20:27:06.005Z,5.03
2023-03-12T20:29:32.485Z,5.43
2023-03-12T20:31:58.911Z,4.40
2023-03-12T20:34:25.594Z,5.70
2023-03-12T20:36:52.096Z,4.17
2023-03-12T20:39:18.558Z,4.60
2023-03-12T20:41:45.011Z,4.57
2023-03-12T20:44:11.508Z,4.33
2023-03-12T20:46:37.920Z,4.33
2023-03-12T20:49:04.398Z,4.70
2023-03-12T20:51:31.018Z,4.60
2023-03-12T20:53:57.702Z,5.30
2023-03-12T20:56:24.078Z,4.33
2023-03-12T20:58:50.562Z,4.83
2023-03-12T21:01:16.972Z,4.40
2023-03-12T21:03:43.372Z,4.50
2023-03-12T21:06:09.821Z,5.43
2023-03-12T21:08:36.246Z,5.23
2023-03-12T21:11:06.465Z,5.27
2023-03-12T21:13:32.859Z,5.67
2023-03-12T21:15:59.559Z,4.90
2023-03-12T21:18:26.146Z,6.37
2023-03-12T21:20:52.638Z,5.17
2023-03-12T21:23:19.000Z,4.83
2023-03-12T21:25:45.670Z,5.60
2023-03-12T21:28:12.179Z,4.53
2023-03-12T21:30:39.054Z,4.40
2023-03-12T21:33:05.770Z,4.57
2023-03-12T21:35:32.292Z,4.93
2023-03-12T21:37:59.066Z,4.10
2023-03-12T21:40:25.606Z,4.77
2023-03-12T21:42:52.143Z,4.90
2023-03-12T21:45:18.798Z,5.33
2023-03-12T21:47:45.282Z,4.80
2023-03-12T21:50:11.808Z,4.67
2023-03-12T21:52:43.700Z,5.10
2023-03-12T21:55:10.839Z,4.70
2023-03-12T21:57:37.796Z,4.83
2023-03-12T22:00:05.960Z,4.97
2023-03-12T22:02:32.468Z,4.50
2023-03-12T22:05:00.408Z,4.80
2023-03-12T22:07:30.111Z,4.70
2023-03-12T22:09:56.604Z,5.30
2023-03-12T22:12:23.491Z,4.33
2023-03-12T22:14:49.942Z,4.63
2023-03-12T22:17:17.200Z,4.73
2023-03-12T22:19:43.783Z,5.37
2023-03-12T22:22:10.214Z,5.27
2023-03-12T22:24:37.443Z,3.90
2023-03-12T22:27:06.474Z,3.93
2023-03-12T22:29:33.815Z,4.53
2023-03-12T22:32:00.151Z,4.43
2023-03-12T22:34:26.603Z,5.23
2023-03-12T22:36:53.110Z,4.50
2023-03-12T22:39:19.965Z,4.70
2023-03-12T22:41:50.770Z,3.97
2023-03-12T22:44:17.396Z,4.70
2023-03-12T22:46:43.946Z,4.30
2023-03-12T22:49:10.676Z,4.40
2023-03-12T22:51:37.392Z,3.90
2023-03-12T22:54:04.436Z,4.70
2023-03-12T22:56:31.023Z,4.10
2023-03-12T22:58:57.445Z,4.20
2023-03-12T23:01:24.829Z,3.93
2023-03-12T23:03:51.936Z,4.17
2023-03-12T23:06:21.526Z,4.50
2023-03-12T23:08:48.651Z,4.10
2023-03-12T23:11:16.632Z,4.37
2023-03-12T23:13:44.947Z,3.77
2023-03-12T23:16:17.146Z,3.83
2023-03-12T23:18:43.754Z,4.37
2023-03-12T23:21:15.620Z,3.77
2023-03-12T23:23:43.520Z,4.07
2023-03-12T23:26:16.538Z,4.37
2023-03-12T23:28:43.184Z,3.73
2023-03-12T23:31:10.533Z,3.80
2023-03-12T23:33:37.776Z,4.13
2023-03-12T23:36:05.871Z,3.77
2023-03-12T23:38:32.774Z,4.10
2023-03-12T23:41:04.447Z,3.90
2023-03-12T23:43:30.910Z,3.67
2023-03-12T23:45:59.329Z,3.60
2023-03-12T23:48:27.223Z,3.40
2023-03-12T23:50:53.999Z,3.90
2023-03-12T23:53:20.769Z,3.73
2023-03-12T23:55:56.183Z,4.10
2023-03-12T23:58:23.548Z,4.20
